sensor_id;sensor_type;location;lat;lon;timestamp;temperature;humidity
15937;DHT22;9163;48.818;8.976;2023-02-08T00:01:05;-3.10;99.90
15937;DHT22;9163;48.818;8.976;2023-02-08T00:03:33;-3.10;99.90
15937;DHT22;9163;48.818;8.976;2023-02-08T00:06:00;-3.10;99.90
15937;DHT22;9163;48.818;8.976;2023-02-08T00:08:29;-3.10;99.90
15937;DHT22;9163;48.818;8.976;2023-02-08T00:10:56;-3.10;99.90
15937;DHT22;9163;48.818;8.976;2023-02-08T00:13:24;-3.20;99.90
15937;DHT22;9163;48.818;8.976;2023-02-08T00:15:53;-3.20;99.90
15937;DHT22;9163;48.818;8.976;2023-02-08T00:18:20;-3.30;99.90
15937;DHT22;9163;48.818;8.976;2023-02-08T00:20:48;-3.30;99.90
15937;DHT22;9163;48.818;8.976;2023-02-08T00:23:15;-3.30;99.90
15937;DHT22;9163;48.818;8.976;2023-02-08T00:25:44;-3.30;99.90
15937;DHT22;9163;48.818;8.976;2023-02-08T00:28:15;-3.40;99.90
15937;DHT22;9163;48.818;8.976;2023-02-08T00:30:43;-3.40;99.90
15937;DHT22;9163;48.818;8.976;2023-02-08T00:33:11;-3.50;99.90
15937;DHT22;9163;48.818;8.976;2023-02-08T00:35:38;-3.60;99.90
15937;DHT22;9163;48.818;8.976;2023-02-08T00:38:07;-3.60;99.90
15937;DHT22;9163;48.818;8.976;2023-02-08T00:40:34;-3.60;99.90
15937;DHT22;9163;48.818;8.976;2023-02-08T00:43:03;-3.70;99.90
15937;DHT22;9163;48.818;8.976;2023-02-08T00:45:32;-3.70;99.90
15937;DHT22;9163;48.818;8.976;2023-02-08T00:47:59;-3.80;99.90
15937;DHT22;9163;48.818;8.976;2023-02-08T00:50:26;-3.80;99.90
15937;DHT22;9163;48.818;8.976;2023-02-08T00:52:53;-3.90;99.90
15937;DHT22;9163;48.818;8.976;2023-02-08T00:55:21;-3.90;99.90
15937;DHT22;9163;48.818;8.976;2023-02-08T00:57:48;-3.90;99.90
15937;DHT22;9163;48.818;8.976;2023-02-08T01:00:17;-3.90;99.90
15937;DHT22;9163;48.818;8.976;2023-02-08T01:02:44;-3.90;99.90
15937;DHT22;9163;48.818;8.976;2023-02-08T01:05:12;-4.00;99.90
15937;DHT22;9163;48.818;8.976;2023-02-08T01:07:39;-4.00;99.90
15937;DHT22;9163;48.818;8.976;2023-02-08T01:10:07;-4.10;99.90
15937;DHT22;9163;48.818;8.976;2023-02-08T01:12:37;-4.10;99.90
15937;DHT22;9163;48.818;8.976;2023-02-08T01:15:04;-4.20;99.90
15937;DHT22;9163;48.818;8.976;2023-02-08T01:17:33;-4.20;99.90
15937;DHT22;9163;48.818;8.976;2023-02-08T01:20:00;-4.20;99.90
15937;DHT22;9163;48.818;8.976;2023-02-08T01:22:28;-4.30;99.90
15937;DHT22;9163;48.818;8.976;2023-02-08T01:24:55;-4.20;99.90
15937;DHT22;9163;48.818;8.976;2023-02-08T01:27:22;-4.20;99.90
15937;DHT22;9163;48.818;8.976;2023-02-08T01:29:50;-4.30;99.90
15937;DHT22;9163;48.818;8.976;2023-02-08T01:32:17;-4.20;99.90
15937;DHT22;9163;48.818;8.976;2023-02-08T01:34:46;-4.20;99.90
15937;DHT22;9163;48.818;8.976;2023-02-08T01:37:13;-4.30;99.90
15937;DHT22;9163;48.818;8.976;2023-02-08T01:39:40;-4.30;99.90
15937;DHT22;9163;48.818;8.976;2023-02-08T01:42:09;-4.40;99.90
15937;DHT22;9163;48.818;8.976;2023-02-08T01:47:57;-4.40;99.90
15937;DHT22;9163;48.818;8.976;2023-02-08T01:50:31;-4.40;99.90
15937;DHT22;9163;48.818;8.976;2023-02-08T01:53:01;-4.50;99.90
15937;DHT22;9163;48.818;8.976;2023-02-08T01:55:31;-4.40;99.90
15937;DHT22;9163;48.818;8.976;2023-02-08T01:58:02;-4.40;99.90
15937;DHT22;9163;48.818;8.976;2023-02-08T02:00:30;-4.30;99.90
15937;DHT22;9163;48.818;8.976;2023-02-08T02:02:59;-4.40;99.90
15937;DHT22;9163;48.818;8.976;2023-02-08T02:05:31;-4.20;99.90
15937;DHT22;9163;48.818;8.976;2023-02-08T02:08:00;-4.20;99.90
15937;DHT22;9163;48.818;8.976;2023-02-08T02:10:29;-4.10;99.90
15937;DHT22;9163;48.818;8.976;2023-02-08T02:13:02;-4.10;99.90
15937;DHT22;9163;48.818;8.976;2023-02-08T02:15:30;-4.10;99.90
15937;DHT22;9163;48.818;8.976;2023-02-08T02:17:57;-4.00;99.90
15937;DHT22;9163;48.818;8.976;2023-02-08T02:20:33;-4.10;99.90
15937;DHT22;9163;48.818;8.976;2023-02-08T02:23:29;-4.10;99.90
15937;DHT22;9163;48.818;8.976;2023-02-08T02:29:20;-4.20;99.90
15937;DHT22;9163;48.818;8.976;2023-02-08T02:32:01;-4.20;99.90
15937;DHT22;9163;48.818;8.976;2023-02-08T02:34:36;-4.30;99.90
15937;DHT22;9163;48.818;8.976;2023-02-08T02:37:11;-4.30;99.90
15937;DHT22;9163;48.818;8.976;2023-02-08T02:39:49;-4.30;99.90
15937;DHT22;9163;48.818;8.976;2023-02-08T02:42:25;-4.30;99.90
15937;DHT22;9163;48.818;8.976;2023-02-08T02:45:19;-4.30;99.90
15937;DHT22;9163;48.818;8.976;2023-02-08T02:47:53;-4.40;99.90
15937;DHT22;9163;48.818;8.976;2023-02-08T02:50:24;-4.50;99.90
15937;DHT22;9163;48.818;8.976;2023-02-08T02:52:59;-4.50;99.90
15937;DHT22;9163;48.818;8.976;2023-02-08T02:55:28;-4.60;99.90
15937;DHT22;9163;48.818;8.976;2023-02-08T02:57:59;-4.70;99.90
15937;DHT22;9163;48.818;8.976;2023-02-08T03:00:28;-4.70;99.90
15937;DHT22;9163;48.818;8.976;2023-02-08T03:02:58;-4.70;99.90
15937;DHT22;9163;48.818;8.976;2023-02-08T03:05:27;-4.80;99.90
15937;DHT22;9163;48.818;8.976;2023-02-08T03:08:05;-4.80;99.90
15937;DHT22;9163;48.818;8.976;2023-02-08T03:10:49;-4.80;99.90
15937;DHT22;9163;48.818;8.976;2023-02-08T03:13:25;-4.80;99.90
15937;DHT22;9163;48.818;8.976;2023-02-08T03:16:02;-4.80;99.90
15937;DHT22;9163;48.818;8.976;2023-02-08T03:18:36;-4.80;99.90
15937;DHT22;9163;48.818;8.976;2023-02-08T03:21:11;-4.80;99.90
15937;DHT22;9163;48.818;8.976;2023-02-08T03:23:46;-4.80;99.90
15937;DHT22;9163;48.818;8.976;2023-02-08T03:26:19;-4.80;99.90
15937;DHT22;9163;48.818;8.976;2023-02-08T03:28:55;-4.80;99.90
15937;DHT22;9163;48.818;8.976;2023-02-08T03:31:28;-4.80;99.90
15937;DHT22;9163;48.818;8.976;2023-02-08T03:34:01;-4.80;99.90
15937;DHT22;9163;48.818;8.976;2023-02-08T03:36:36;-4.90;99.90
15937;DHT22;9163;48.818;8.976;2023-02-08T03:39:09;-4.90;99.90
15937;DHT22;9163;48.818;8.976;2023-02-08T03:41:40;-4.90;99.90
15937;DHT22;9163;48.818;8.976;2023-02-08T03:44:10;-4.90;99.90
15937;DHT22;9163;48.818;8.976;2023-02-08T03:46:42;-4.90;99.90
15937;DHT22;9163;48.818;8.976;2023-02-08T03:49:26;-4.90;99.90
15937;DHT22;9163;48.818;8.976;2023-02-08T03:51:57;-4.90;99.90
15937;DHT22;9163;48.818;8.976;2023-02-08T03:54:29;-4.80;99.90
15937;DHT22;9163;48.818;8.976;2023-02-08T03:57:04;-4.80;99.90
15937;DHT22;9163;48.818;8.976;2023-02-08T03:59:35;-4.90;99.90
15937;DHT22;9163;48.818;8.976;2023-02-08T04:02:06;-4.90;99.90
15937;DHT22;9163;48.818;8.976;2023-02-08T04:04:38;-4.90;99.90
15937;DHT22;9163;48.818;8.976;2023-02-08T04:07:07;-4.90;99.90
15937;DHT22;9163;48.818;8.976;2023-02-08T04:09:34;-4.90;99.90
15937;DHT22;9163;48.818;8.976;2023-02-08T04:12:02;-5.00;99.90
15937;DHT22;9163;48.818;8.976;2023-02-08T04:14:29;-5.00;99.90
15937;DHT22;9163;48.818;8.976;2023-02-08T04:16:56;-5.00;99.90
15937;DHT22;9163;48.818;8.976;2023-02-08T04:19:23;-5.10;99.90
15937;DHT22;9163;48.818;8.976;2023-02-08T04:21:52;-5.10;99.90
15937;DHT22;9163;48.818;8.976;2023-02-08T04:24:19;-5.10;99.90
15937;DHT22;9163;48.818;8.976;2023-02-08T04:26:46;-5.10;99.90
15937;DHT22;9163;48.818;8.976;2023-02-08T04:29:14;-5.10;99.90
15937;DHT22;9163;48.818;8.976;2023-02-08T04:31:41;-5.20;99.90
15937;DHT22;9163;48.818;8.976;2023-02-08T04:34:08;-5.20;99.90
15937;DHT22;9163;48.818;8.976;2023-02-08T04:36:35;-5.20;99.90
15937;DHT22;9163;48.818;8.976;2023-02-08T04:39:04;-5.20;99.90
15937;DHT22;9163;48.818;8.976;2023-02-08T04:41:31;-5.20;99.90
15937;DHT22;9163;48.818;8.976;2023-02-08T04:43:58;-5.30;99.90
15937;DHT22;9163;48.818;8.976;2023-02-08T04:46:25;-5.30;99.90
15937;DHT22;9163;48.818;8.976;2023-02-08T04:48:53;-5.40;99.90
15937;DHT22;9163;48.818;8.976;2023-02-08T04:51:20;-5.40;99.90
15937;DHT22;9163;48.818;8.976;2023-02-08T04:53:47;-5.40;99.90
15937;DHT22;9163;48.818;8.976;2023-02-08T04:56:16;-5.30;99.90
15937;DHT22;9163;48.818;8.976;2023-02-08T04:58:43;-5.40;99.90
15937;DHT22;9163;48.818;8.976;2023-02-08T05:01:10;-5.40;99.90
15937;DHT22;9163;48.818;8.976;2023-02-08T05:03:37;-5.30;99.90
15937;DHT22;9163;48.818;8.976;2023-02-08T05:06:05;-5.30;99.90
15937;DHT22;9163;48.818;8.976;2023-02-08T05:08:33;-5.20;99.90
15937;DHT22;9163;48.818;8.976;2023-02-08T05:11:00;-5.30;99.90
15937;DHT22;9163;48.818;8.976;2023-02-08T05:13:28;-5.30;99.90
15937;DHT22;9163;48.818;8.976;2023-02-08T05:15:56;-5.20;99.90
15937;DHT22;9163;48.818;8.976;2023-02-08T05:18:23;-5.20;99.90
15937;DHT22;9163;48.818;8.976;2023-02-08T05:20:54;-5.20;99.90
15937;DHT22;9163;48.818;8.976;2023-02-08T05:23:22;-5.20;99.90
15937;DHT22;9163;48.818;8.976;2023-02-08T05:25:49;-5.20;99.90
15937;DHT22;9163;48.818;8.976;2023-02-08T05:28:17;-5.30;99.90
15937;DHT22;9163;48.818;8.976;2023-02-08T05:30:46;-5.30;99.90
15937;DHT22;9163;48.818;8.976;2023-02-08T05:33:13;-5.30;99.90
15937;DHT22;9163;48.818;8.976;2023-02-08T05:35:40;-5.40;99.90
15937;DHT22;9163;48.818;8.976;2023-02-08T05:38:08;-5.40;99.90
15937;DHT22;9163;48.818;8.976;2023-02-08T05:40:35;-5.50;99.90
15937;DHT22;9163;48.818;8.976;2023-02-08T05:43:02;-5.50;99.90
15937;DHT22;9163;48.818;8.976;2023-02-08T05:45:29;-5.50;99.90
15937;DHT22;9163;48.818;8.976;2023-02-08T05:47:58;-5.50;99.90
15937;DHT22;9163;48.818;8.976;2023-02-08T05:50:25;-5.60;99.90
15937;DHT22;9163;48.818;8.976;2023-02-08T05:52:52;-5.50;99.90
15937;DHT22;9163;48.818;8.976;2023-02-08T05:55:19;-5.60;99.90
15937;DHT22;9163;48.818;8.976;2023-02-08T05:57:47;-5.60;99.90
15937;DHT22;9163;48.818;8.976;2023-02-08T06:00:15;-5.60;99.90
15937;DHT22;9163;48.818;8.976;2023-02-08T06:02:42;-5.60;99.90
15937;DHT22;9163;48.818;8.976;2023-02-08T06:05:11;-5.60;99.90
15937;DHT22;9163;48.818;8.976;2023-02-08T06:07:38;-5.60;99.90
15937;DHT22;9163;48.818;8.976;2023-02-08T06:10:06;-5.60;99.90
15937;DHT22;9163;48.818;8.976;2023-02-08T06:12:33;-5.70;99.90
15937;DHT22;9163;48.818;8.976;2023-02-08T06:15:01;-5.70;99.90
15937;DHT22;9163;48.818;8.976;2023-02-08T06:17:28;-5.70;99.90
15937;DHT22;9163;48.818;8.976;2023-02-08T06:19:55;-5.60;99.90
15937;DHT22;9163;48.818;8.976;2023-02-08T06:22:24;-5.70;99.90
15937;DHT22;9163;48.818;8.976;2023-02-08T06:24:51;-5.70;99.90
15937;DHT22;9163;48.818;8.976;2023-02-08T06:27:18;-5.70;99.90
15937;DHT22;9163;48.818;8.976;2023-02-08T06:29:45;-5.70;99.90
15937;DHT22;9163;48.818;8.976;2023-02-08T06:32:13;-5.70;99.90
15937;DHT22;9163;48.818;8.976;2023-02-08T06:34:40;-5.60;99.90
15937;DHT22;9163;48.818;8.976;2023-02-08T06:37:07;-5.60;99.90
15937;DHT22;9163;48.818;8.976;2023-02-08T06:39:36;-5.60;99.90
15937;DHT22;9163;48.818;8.976;2023-02-08T06:42:03;-5.70;99.90
15937;DHT22;9163;48.818;8.976;2023-02-08T06:44:30;-5.70;99.90
15937;DHT22;9163;48.818;8.976;2023-02-08T06:46:58;-5.70;99.90
15937;DHT22;9163;48.818;8.976;2023-02-08T06:49:25;-5.70;99.90
15937;DHT22;9163;48.818;8.976;2023-02-08T06:51:52;-5.70;99.90
15937;DHT22;9163;48.818;8.976;2023-02-08T06:54:19;-5.70;99.90
15937;DHT22;9163;48.818;8.976;2023-02-08T06:56:48;-5.70;99.90
15937;DHT22;9163;48.818;8.976;2023-02-08T06:59:15;-5.60;99.90
15937;DHT22;9163;48.818;8.976;2023-02-08T07:01:42;-5.50;99.90
15937;DHT22;9163;48.818;8.976;2023-02-08T07:04:09;-5.40;99.90
15937;DHT22;9163;48.818;8.976;2023-02-08T07:06:36;-5.20;99.90
15937;DHT22;9163;48.818;8.976;2023-02-08T07:09:04;-5.10;99.90
15937;DHT22;9163;48.818;8.976;2023-02-08T07:11:31;-5.00;99.90
15937;DHT22;9163;48.818;8.976;2023-02-08T07:13:59;-4.80;99.90
15937;DHT22;9163;48.818;8.976;2023-02-08T07:16:27;-4.70;99.90
15937;DHT22;9163;48.818;8.976;2023-02-08T07:18:54;-4.50;99.90
15937;DHT22;9163;48.818;8.976;2023-02-08T07:21:21;-4.30;99.90
15937;DHT22;9163;48.818;8.976;2023-02-08T07:23:49;-4.10;99.90
15937;DHT22;9163;48.818;8.976;2023-02-08T07:26:16;-4.00;99.90
15937;DHT22;9163;48.818;8.976;2023-02-08T07:28:43;-3.70;99.90
15937;DHT22;9163;48.818;8.976;2023-02-08T07:31:14;-3.50;99.90
15937;DHT22;9163;48.818;8.976;2023-02-08T07:33:42;-3.30;99.90
15937;DHT22;9163;48.818;8.976;2023-02-08T07:36:10;-3.10;99.90
15937;DHT22;9163;48.818;8.976;2023-02-08T07:38:37;-3.00;99.90
15937;DHT22;9163;48.818;8.976;2023-02-08T07:41:06;-2.70;99.90
15937;DHT22;9163;48.818;8.976;2023-02-08T07:43:34;-2.50;99.90
15937;DHT22;9163;48.818;8.976;2023-02-08T07:46:06;-2.20;99.90
15937;DHT22;9163;48.818;8.976;2023-02-08T07:48:35;-2.10;99.90
15937;DHT22;9163;48.818;8.976;2023-02-08T07:51:03;-1.80;99.90
15937;DHT22;9163;48.818;8.976;2023-02-08T07:53:30;-1.80;99.90
15937;DHT22;9163;48.818;8.976;2023-02-08T07:55:58;-1.40;99.90
15937;DHT22;9163;48.818;8.976;2023-02-08T07:58:26;-1.30;99.90
15937;DHT22;9163;48.818;8.976;2023-02-08T08:00:53;-1.00;99.90
15937;DHT22;9163;48.818;8.976;2023-02-08T08:03:20;-0.80;99.90
15937;DHT22;9163;48.818;8.976;2023-02-08T08:05:49;-0.60;99.90
15937;DHT22;9163;48.818;8.976;2023-02-08T08:08:17;-0.40;99.90
15937;DHT22;9163;48.818;8.976;2023-02-08T08:10:44;-0.30;99.90
15937;DHT22;9163;48.818;8.976;2023-02-08T08:13:11;0.00;99.90
15937;DHT22;9163;48.818;8.976;2023-02-08T08:15:39;0.10;99.90
15937;DHT22;9163;48.818;8.976;2023-02-08T08:18:07;0.40;99.90
15937;DHT22;9163;48.818;8.976;2023-02-08T08:20:34;0.80;99.90
15937;DHT22;9163;48.818;8.976;2023-02-08T08:23:03;1.00;99.90
15937;DHT22;9163;48.818;8.976;2023-02-08T08:25:31;1.20;99.90
15937;DHT22;9163;48.818;8.976;2023-02-08T08:27:58;1.30;99.90
15937;DHT22;9163;48.818;8.976;2023-02-08T08:30:26;1.70;99.90
15937;DHT22;9163;48.818;8.976;2023-02-08T08:32:53;1.90;99.90
15937;DHT22;9163;48.818;8.976;2023-02-08T08:35:21;2.00;99.90
15937;DHT22;9163;48.818;8.976;2023-02-08T08:37:48;2.00;99.90
15937;DHT22;9163;48.818;8.976;2023-02-08T08:40:17;1.90;99.90
15937;DHT22;9163;48.818;8.976;2023-02-08T08:42:44;2.30;99.90
15937;DHT22;9163;48.818;8.976;2023-02-08T08:45:11;2.70;99.90
15937;DHT22;9163;48.818;8.976;2023-02-08T08:47:38;2.90;99.90
15937;DHT22;9163;48.818;8.976;2023-02-08T08:50:06;3.30;99.90
15937;DHT22;9163;48.818;8.976;2023-02-08T08:52:33;3.70;99.90
15937;DHT22;9163;48.818;8.976;2023-02-08T08:55:00;3.70;99.90
15937;DHT22;9163;48.818;8.976;2023-02-08T08:57:29;4.00;99.90
15937;DHT22;9163;48.818;8.976;2023-02-08T08:59:56;4.80;99.90
15937;DHT22;9163;48.818;8.976;2023-02-08T09:02:24;5.40;99.90
15937;DHT22;9163;48.818;8.976;2023-02-08T09:04:51;6.10;99.90
15937;DHT22;9163;48.818;8.976;2023-02-08T09:07:18;5.90;99.90
15937;DHT22;9163;48.818;8.976;2023-02-08T09:09:45;6.20;99.90
15937;DHT22;9163;48.818;8.976;2023-02-08T09:12:13;7.10;99.90
15937;DHT22;9163;48.818;8.976;2023-02-08T09:14:42;7.40;99.90
15937;DHT22;9163;48.818;8.976;2023-02-08T09:17:10;8.20;99.90
15937;DHT22;9163;48.818;8.976;2023-02-08T09:19:38;8.80;99.90
15937;DHT22;9163;48.818;8.976;2023-02-08T09:22:05;9.60;99.90
15937;DHT22;9163;48.818;8.976;2023-02-08T09:24:33;9.90;97.30
15937;DHT22;9163;48.818;8.976;2023-02-08T09:27:00;10.30;95.50
15937;DHT22;9163;48.818;8.976;2023-02-08T09:29:28;10.60;93.80
15937;DHT22;9163;48.818;8.976;2023-02-08T09:31:59;11.00;93.10
15937;DHT22;9163;48.818;8.976;2023-02-08T09:34:26;11.40;91.70
15937;DHT22;9163;48.818;8.976;2023-02-08T09:36:54;11.70;88.60
15937;DHT22;9163;48.818;8.976;2023-02-08T09:39:23;12.20;84.70
15937;DHT22;9163;48.818;8.976;2023-02-08T09:42:09;12.80;82.60
15937;DHT22;9163;48.818;8.976;2023-02-08T09:44:50;13.00;77.50
15937;DHT22;9163;48.818;8.976;2023-02-08T09:47:23;14.00;77.50
15937;DHT22;9163;48.818;8.976;2023-02-08T09:49:58;14.30;70.50
15937;DHT22;9163;48.818;8.976;2023-02-08T09:52:33;14.80;68.30
15937;DHT22;9163;48.818;8.976;2023-02-08T09:55:07;14.60;66.00
15937;DHT22;9163;48.818;8.976;2023-02-08T09:57:37;14.50;64.40
15937;DHT22;9163;48.818;8.976;2023-02-08T10:00:10;15.40;62.50
15937;DHT22;9163;48.818;8.976;2023-02-08T10:02:42;15.30;60.90
15937;DHT22;9163;48.818;8.976;2023-02-08T10:05:12;16.20;60.60
15937;DHT22;9163;48.818;8.976;2023-02-08T10:07:40;16.70;57.10
15937;DHT22;9163;48.818;8.976;2023-02-08T10:10:14;17.30;56.10
15937;DHT22;9163;48.818;8.976;2023-02-08T10:12:49;17.30;52.00
15937;DHT22;9163;48.818;8.976;2023-02-08T10:15:28;17.50;51.80
15937;DHT22;9163;48.818;8.976;2023-02-08T10:18:15;17.50;50.80
15937;DHT22;9163;48.818;8.976;2023-02-08T10:21:00;18.20;51.20
15937;DHT22;9163;48.818;8.976;2023-02-08T10:23:44;17.70;48.30
15937;DHT22;9163;48.818;8.976;2023-02-08T10:26:19;18.20;47.50
15937;DHT22;9163;48.818;8.976;2023-02-08T10:32:03;18.70;47.00
15937;DHT22;9163;48.818;8.976;2023-02-08T10:34:42;19.00;45.70
15937;DHT22;9163;48.818;8.976;2023-02-08T10:37:13;18.20;44.90
15937;DHT22;9163;48.818;8.976;2023-02-08T10:39:41;19.30;47.20
15937;DHT22;9163;48.818;8.976;2023-02-08T10:42:12;18.50;45.80
15937;DHT22;9163;48.818;8.976;2023-02-08T10:44:52;19.60;46.20
15937;DHT22;9163;48.818;8.976;2023-02-08T10:47:32;19.90;43.40
15937;DHT22;9163;48.818;8.976;2023-02-08T10:50:06;20.10;46.10
15937;DHT22;9163;48.818;8.976;2023-02-08T10:52:37;20.70;43.20
15937;DHT22;9163;48.818;8.976;2023-02-08T10:55:12;20.90;42.40
15937;DHT22;9163;48.818;8.976;2023-02-08T10:57:40;20.40;41.40
15937;DHT22;9163;48.818;8.976;2023-02-08T11:00:13;21.10;40.30
15937;DHT22;9163;48.818;8.976;2023-02-08T11:02:42;21.10;40.00
15937;DHT22;9163;48.818;8.976;2023-02-08T11:05:14;21.30;42.00
15937;DHT22;9163;48.818;8.976;2023-02-08T11:07:43;20.90;39.50
15937;DHT22;9163;48.818;8.976;2023-02-08T11:10:20;20.90;41.50
15937;DHT22;9163;48.818;8.976;2023-02-08T11:12:56;21.60;39.70
15937;DHT22;9163;48.818;8.976;2023-02-08T11:15:26;21.50;38.00
15937;DHT22;9163;48.818;8.976;2023-02-08T11:17:58;21.60;38.50
15937;DHT22;9163;48.818;8.976;2023-02-08T11:20:32;22.40;38.20
15937;DHT22;9163;48.818;8.976;2023-02-08T11:23:02;22.40;38.50
15937;DHT22;9163;48.818;8.976;2023-02-08T11:25:33;23.00;37.70
15937;DHT22;9163;48.818;8.976;2023-02-08T11:28:02;22.70;37.90
15937;DHT22;9163;48.818;8.976;2023-02-08T11:30:29;23.10;35.80
15937;DHT22;9163;48.818;8.976;2023-02-08T11:33:18;23.40;35.90
15937;DHT22;9163;48.818;8.976;2023-02-08T11:36:00;22.90;33.50
15937;DHT22;9163;48.818;8.976;2023-02-08T11:38:29;22.40;33.00
15937;DHT22;9163;48.818;8.976;2023-02-08T11:40:59;22.90;34.80
15937;DHT22;9163;48.818;8.976;2023-02-08T11:43:29;22.10;34.70
15937;DHT22;9163;48.818;8.976;2023-02-08T11:45:57;22.20;35.20
15937;DHT22;9163;48.818;8.976;2023-02-08T11:48:31;22.70;34.50
15937;DHT22;9163;48.818;8.976;2023-02-08T11:51:03;21.30;33.70
15937;DHT22;9163;48.818;8.976;2023-02-08T11:53:33;20.50;35.70
15937;DHT22;9163;48.818;8.976;2023-02-08T11:56:04;22.00;35.90
15937;DHT22;9163;48.818;8.976;2023-02-08T11:58:32;21.50;33.10
15937;DHT22;9163;48.818;8.976;2023-02-08T12:01:01;22.30;33.60
15937;DHT22;9163;48.818;8.976;2023-02-08T12:03:30;22.30;35.60
15937;DHT22;9163;48.818;8.976;2023-02-08T12:06:23;23.30;33.90
15937;DHT22;9163;48.818;8.976;2023-02-08T12:09:02;23.70;34.10
15937;DHT22;9163;48.818;8.976;2023-02-08T12:11:39;23.80;32.50
15937;DHT22;9163;48.818;8.976;2023-02-08T12:14:36;24.20;31.90
15937;DHT22;9163;48.818;8.976;2023-02-08T12:17:19;24.10;30.80
15937;DHT22;9163;48.818;8.976;2023-02-08T12:20:05;24.50;32.40
15937;DHT22;9163;48.818;8.976;2023-02-08T12:22:37;24.50;30.40
15937;DHT22;9163;48.818;8.976;2023-02-08T12:25:21;25.10;30.20
15937;DHT22;9163;48.818;8.976;2023-02-08T12:27:56;25.50;30.10
15937;DHT22;9163;48.818;8.976;2023-02-08T12:30:31;25.30;31.20
15937;DHT22;9163;48.818;8.976;2023-02-08T12:36:13;26.10;29.90
15937;DHT22;9163;48.818;8.976;2023-02-08T12:42:09;26.40;29.60
15937;DHT22;9163;48.818;8.976;2023-02-08T12:44:53;26.40;27.30
15937;DHT22;9163;48.818;8.976;2023-02-08T12:47:36;26.50;28.90
15937;DHT22;9163;48.818;8.976;2023-02-08T12:50:13;26.40;29.10
15937;DHT22;9163;48.818;8.976;2023-02-08T12:52:48;25.90;28.70
15937;DHT22;9163;48.818;8.976;2023-02-08T12:55:22;25.50;29.40
15937;DHT22;9163;48.818;8.976;2023-02-08T12:57:53;25.80;29.20
15937;DHT22;9163;48.818;8.976;2023-02-08T13:00:24;26.30;28.90
15937;DHT22;9163;48.818;8.976;2023-02-08T13:03:00;26.40;27.50
15937;DHT22;9163;48.818;8.976;2023-02-08T13:05:34;26.30;28.30
15937;DHT22;9163;48.818;8.976;2023-02-08T13:08:07;26.50;28.30
15937;DHT22;9163;48.818;8.976;2023-02-08T13:10:39;26.60;28.80
15937;DHT22;9163;48.818;8.976;2023-02-08T13:13:12;26.20;28.00
15937;DHT22;9163;48.818;8.976;2023-02-08T13:15:44;26.80;27.30
15937;DHT22;9163;48.818;8.976;2023-02-08T13:18:16;27.20;27.00
15937;DHT22;9163;48.818;8.976;2023-02-08T13:20:46;27.10;27.10
15937;DHT22;9163;48.818;8.976;2023-02-08T13:23:21;27.30;27.40
15937;DHT22;9163;48.818;8.976;2023-02-08T13:25:53;26.50;27.90
15937;DHT22;9163;48.818;8.976;2023-02-08T13:28:23;26.80;27.70
15937;DHT22;9163;48.818;8.976;2023-02-08T13:30:57;26.60;27.10
15937;DHT22;9163;48.818;8.976;2023-02-08T13:33:32;26.60;27.40
15937;DHT22;9163;48.818;8.976;2023-02-08T13:36:00;26.80;27.00
15937;DHT22;9163;48.818;8.976;2023-02-08T13:38:30;27.30;26.80
15937;DHT22;9163;48.818;8.976;2023-02-08T13:41:06;27.60;27.40
15937;DHT22;9163;48.818;8.976;2023-02-08T13:43:37;28.10;26.90
15937;DHT22;9163;48.818;8.976;2023-02-08T13:46:06;28.10;26.70
15937;DHT22;9163;48.818;8.976;2023-02-08T13:48:42;28.40;26.00
15937;DHT22;9163;48.818;8.976;2023-02-08T13:51:50;28.00;26.50
15937;DHT22;9163;48.818;8.976;2023-02-08T13:54:17;28.00;26.40
15937;DHT22;9163;48.818;8.976;2023-02-08T13:56:47;27.50;26.20
15937;DHT22;9163;48.818;8.976;2023-02-08T14:02:27;27.40;26.30
15937;DHT22;9163;48.818;8.976;2023-02-08T14:05:32;26.50;26.50
15937;DHT22;9163;48.818;8.976;2023-02-08T14:08:02;26.50;26.80
15937;DHT22;9163;48.818;8.976;2023-02-08T14:10:33;26.00;26.80
15937;DHT22;9163;48.818;8.976;2023-02-08T14:13:14;26.70;27.30
15937;DHT22;9163;48.818;8.976;2023-02-08T14:15:43;25.70;27.30
15937;DHT22;9163;48.818;8.976;2023-02-08T14:18:22;25.50;27.60
15937;DHT22;9163;48.818;8.976;2023-02-08T14:20:59;26.30;27.50
15937;DHT22;9163;48.818;8.976;2023-02-08T14:23:28;26.10;27.10
15937;DHT22;9163;48.818;8.976;2023-02-08T14:25:58;26.10;27.60
15937;DHT22;9163;48.818;8.976;2023-02-08T14:28:32;25.20;27.10
15937;DHT22;9163;48.818;8.976;2023-02-08T14:31:03;25.40;27.40
15937;DHT22;9163;48.818;8.976;2023-02-08T14:33:34;25.70;27.10
15937;DHT22;9163;48.818;8.976;2023-02-08T14:36:05;24.90;27.10
15937;DHT22;9163;48.818;8.976;2023-02-08T14:39:04;24.10;27.80
15937;DHT22;9163;48.818;8.976;2023-02-08T14:41:52;24.70;27.70
15937;DHT22;9163;48.818;8.976;2023-02-08T14:45:03;25.50;28.10
15937;DHT22;9163;48.818;8.976;2023-02-08T14:48:17;25.00;27.20
15937;DHT22;9163;48.818;8.976;2023-02-08T14:50:56;25.10;27.20
15937;DHT22;9163;48.818;8.976;2023-02-08T14:53:36;24.10;27.80
15937;DHT22;9163;48.818;8.976;2023-02-08T14:56:14;24.00;28.10
15937;DHT22;9163;48.818;8.976;2023-02-08T14:58:44;24.80;28.30
15937;DHT22;9163;48.818;8.976;2023-02-08T15:01:17;23.50;28.20
15937;DHT22;9163;48.818;8.976;2023-02-08T15:03:46;23.50;28.80
15937;DHT22;9163;48.818;8.976;2023-02-08T15:09:15;24.10;28.50
15937;DHT22;9163;48.818;8.976;2023-02-08T15:11:48;23.00;28.90
15937;DHT22;9163;48.818;8.976;2023-02-08T15:14:18;23.40;29.60
15937;DHT22;9163;48.818;8.976;2023-02-08T15:16:47;23.00;29.00
15937;DHT22;9163;48.818;8.976;2023-02-08T15:19:21;22.90;29.10
15937;DHT22;9163;48.818;8.976;2023-02-08T15:21:50;22.70;29.40
15937;DHT22;9163;48.818;8.976;2023-02-08T15:24:19;22.10;29.40
15937;DHT22;9163;48.818;8.976;2023-02-08T15:26:49;21.60;30.30
15937;DHT22;9163;48.818;8.976;2023-02-08T15:29:18;20.50;30.40
15937;DHT22;9163;48.818;8.976;2023-02-08T15:31:47;20.80;31.50
15937;DHT22;9163;48.818;8.976;2023-02-08T15:34:16;20.80;31.60
15937;DHT22;9163;48.818;8.976;2023-02-08T15:36:46;19.40;32.60
15937;DHT22;9163;48.818;8.976;2023-02-08T15:39:23;19.60;33.30
15937;DHT22;9163;48.818;8.976;2023-02-08T15:41:54;18.70;32.90
15937;DHT22;9163;48.818;8.976;2023-02-08T15:44:24;18.80;33.90
15937;DHT22;9163;48.818;8.976;2023-02-08T15:46:58;18.20;34.40
15937;DHT22;9163;48.818;8.976;2023-02-08T15:49:29;17.50;35.20
15937;DHT22;9163;48.818;8.976;2023-02-08T15:51:57;17.50;35.10
15937;DHT22;9163;48.818;8.976;2023-02-08T15:54:25;16.70;35.80
15937;DHT22;9163;48.818;8.976;2023-02-08T15:56:54;17.00;36.50
15937;DHT22;9163;48.818;8.976;2023-02-08T15:59:24;16.30;37.20
15937;DHT22;9163;48.818;8.976;2023-02-08T16:01:54;15.70;37.50
15937;DHT22;9163;48.818;8.976;2023-02-08T16:04:23;15.40;38.10
15937;DHT22;9163;48.818;8.976;2023-02-08T16:06:53;14.60;39.30
15937;DHT22;9163;48.818;8.976;2023-02-08T16:09:23;14.20;40.10
15937;DHT22;9163;48.818;8.976;2023-02-08T16:11:53;13.70;40.90
15937;DHT22;9163;48.818;8.976;2023-02-08T16:14:23;12.90;42.10
15937;DHT22;9163;48.818;8.976;2023-02-08T16:16:53;12.30;43.40
15937;DHT22;9163;48.818;8.976;2023-02-08T16:19:25;10.40;45.80
15937;DHT22;9163;48.818;8.976;2023-02-08T16:21:53;9.60;48.10
15937;DHT22;9163;48.818;8.976;2023-02-08T16:24:23;8.50;50.50
15937;DHT22;9163;48.818;8.976;2023-02-08T16:27:02;7.60;53.20
15937;DHT22;9163;48.818;8.976;2023-02-08T16:29:31;6.80;55.10
15937;DHT22;9163;48.818;8.976;2023-02-08T16:32:02;5.90;57.00
15937;DHT22;9163;48.818;8.976;2023-02-08T16:34:32;5.50;58.90